Time;durP1;ratioP1;P1;durP2;ratioP2;P2;SDS_P1;SDS_P2;PMS_P1;PMS_P2;Temp;Humidity;BMP_temperature;BMP_pressure;BME280_temperature;BME280_humidity;BME280_pressure;Samples;Min_cycle;Max_cycle;Signal;HPM_P1;HPM_P2
2022/06/18 00:02:15;;;;;;;3.67;1.52;;;21.70;56.30;;;;;;4934537;29;20044;-78
2022/06/18 00:04:42;;;;;;;1.90;1.58;;;;;;;;;;4936601;29;20032;-75
2022/06/18 00:07:10;;;;;;;3.10;2.13;;;;;;;;;;4939952;28;20082;-75
2022/06/18 00:09:41;;;;;;;3.10;2.10;;;21.60;56.20;;;;;;4934602;29;20501;-75
2022/06/18 00:15:00;;;;;;;2.97;1.27;;;;;;;;;;4944188;29;20073;-75
2022/06/18 00:17:26;;;;;;;1.33;1.23;;;;;;;;;;4934750;29;20124;-76
2022/06/18 00:19:52;;;;;;;1.48;1.38;;;;;;;;;;4933535;29;20020;-75
2022/06/18 00:22:20;;;;;;;3.10;1.58;;;;;;;;;;4933544;29;20051;-76
2022/06/18 00:24:46;;;;;;;2.90;1.60;;;;;;;;;;4933044;29;20031;-75
2022/06/18 00:27:13;;;;;;;2.60;1.88;;;;;;;;;;4939423;29;20048;-75
2022/06/18 00:29:39;;;;;;;2.65;2.45;;;21.40;77.80;;;;;;4944807;29;20516;-75
2022/06/18 00:32:05;;;;;;;3.65;2.05;;;21.20;68.70;;;;;;4933647;28;20035;-76
2022/06/18 00:34:31;;;;;;;2.13;1.58;;;;;;;;;;4934193;29;20140;-76
2022/06/18 00:36:58;;;;;;;3.35;1.85;;;;;;;;;;4942802;28;20556;-75
2022/06/18 00:39:24;;;;;;;2.42;1.75;;;;;;;;;;4933354;29;20027;-75
2022/06/18 00:41:53;;;;;;;3.83;1.90;;;;;;;;;;4943804;28;20039;-75
2022/06/18 00:44:28;;;;;;;1.60;1.50;;;21.10;58.00;;;;;;4933715;29;20050;-75
2022/06/18 00:47:23;;;;;;;2.42;1.92;;;21.10;58.20;;;;;;4932938;29;20641;-75
2022/06/18 00:49:56;;;;;;;1.50;1.40;;;;;;;;;;4936635;28;20031;-75
2022/06/18 00:52:46;;;;;;;1.65;1.52;;;20.90;58.40;;;;;;4939459;28;20110;-75
2022/06/18 00:55:12;;;;;;;2.10;1.55;;;;;;;;;;4924137;29;20368;-75
2022/06/18 00:57:55;;;;;;;1.77;1.55;;;20.80;59.30;;;;;;4932935;29;20023;-75
2022/06/18 01:00:28;;;;;;;1.58;1.45;;;;;;;;;;4938117;29;20053;-75
2022/06/18 01:02:55;;;;;;;2.92;2.63;;;20.70;59.00;;;;;;4940132;29;20084;-75
2022/06/18 01:05:23;;;;;;;2.00;1.80;;;;;;;;;;4944156;28;20118;-75
2022/06/18 01:07:58;;;;;;;1.75;1.55;;;;;;;;;;4931851;29;20039;-76
2022/06/18 01:10:30;;;;;;;2.78;1.83;;;20.60;59.90;;;;;;4931760;29;20042;-76
2022/06/18 01:12:56;;;;;;;3.35;1.92;;;;;;;;;;4931924;29;20019;-76
2022/06/18 01:15:22;;;;;;;2.55;1.75;;;;;;;;;;4942816;29;20075;-75
2022/06/18 01:17:53;;;;;;;1.60;1.48;;;;;;;;;;4933034;29;20031;-76
2022/06/18 01:20:20;;;;;;;2.80;1.85;;;;;;;;;;4933630;29;20481;-76
2022/06/18 01:22:46;;;;;;;2.63;1.80;;;;;;;;;;4924677;29;20498;-75
2022/06/18 01:25:12;;;;;;;4.93;2.10;;;;;;;;;;4932423;29;20039;-75
2022/06/18 01:27:38;;;;;;;2.95;1.92;;;;;;;;;;4943889;29;20075;-75
2022/06/18 01:30:09;;;;;;;3.53;1.50;;;19.90;61.40;;;;;;4932299;29;20027;-75
2022/06/18 01:32:36;;;;;;;1.58;1.40;;;;;;;;;;4942830;29;20031;-75
2022/06/18 01:35:03;;;;;;;2.60;1.77;;;;;;;;;;4937337;28;20023;-75
2022/06/18 01:37:29;;;;;;;;;;;20.00;62.10;;;;;;4936111;28;20042;-75
2022/06/18 01:39:55;;;;;;;1.70;1.35;;;;;;;;;;4940880;28;19911;-75
2022/06/18 01:42:24;;;;;;;1.77;1.65;;;;;;;;;;4933794;29;20043;-75
2022/06/18 01:44:54;;;;;;;4.18;1.90;;;;;;;;;;4935416;29;20024;-75
2022/06/18 01:47:34;;;;;;;2.15;1.67;;;20.00;61.50;;;;;;4933070;29;20508;-76
2022/06/18 01:50:13;;;;;;;1.92;1.67;;;;;;;;;;4931342;29;20032;-76
2022/06/18 01:52:42;;;;;;;1.63;1.50;;;;;;;;;;4933606;29;20035;-75
2022/06/18 01:55:11;;;;;;;2.60;1.83;;;;;;;;;;4940132;28;20378;-77
2022/06/18 01:57:44;;;;;;;2.28;1.63;;;19.90;62.60;;;;;;4937553;29;20026;-76
2022/06/18 02:00:17;;;;;;;7.40;2.63;;;20.00;62.60;;;;;;4939011;29;20024;-75
2022/06/18 02:02:44;;;;;;;2.00;1.80;;;20.00;62.30;;;;;;4940190;29;20039;-75
2022/06/18 02:05:10;;;;;;;3.17;2.65;;;;;;;;;;4932016;29;20035;-75
2022/06/18 02:07:36;;;;;;;2.57;1.87;;;;;;;;;;4933762;29;20043;-76
2022/06/18 02:10:06;;;;;;;1.90;1.70;;;;;;;;;;4932638;29;20482;-76
2022/06/18 02:12:34;;;;;;;2.17;1.80;;;;;;;;;;4932597;29;20051;-76
2022/06/18 02:15:02;;;;;;;2.88;2.60;;;;;;;;;;4932566;29;20047;-75
2022/06/18 02:17:29;;;;;;;2.65;2.05;;;19.50;63.00;;;;;;4932843;29;20031;-76
2022/06/18 02:19:59;;;;;;;2.17;1.30;;;;;;;;;;4931200;29;20055;-76
2022/06/18 02:22:33;;;;;;;2.30;1.80;;;19.50;63.50;;;;;;4931136;29;20028;-75
2022/06/18 02:24:59;;;;;;;5.13;1.73;;;;;;;;;;4931942;29;20099;-75
2022/06/18 02:27:26;;;;;;;2.58;1.67;;;;;;;;;;4932019;29;20597;-75
2022/06/18 02:29:54;;;;;;;3.15;1.92;;;;;;;;;;4936072;29;20082;-75
2022/06/18 02:32:26;;;;;;;1.55;1.45;;;19.50;63.00;;;;;;4932343;29;20110;-76
2022/06/18 02:34:52;;;;;;;1.63;1.52;;;;;;;;;;4936841;29;20449;-75
2022/06/18 02:37:21;;;;;;;1.40;1.30;;;;;;;;;;4935723;28;20028;-76
2022/06/18 02:39:56;;;;;;;4.55;2.20;;;;;;;;;;4930436;29;20047;-75
2022/06/18 02:42:23;;;;;;;1.65;1.55;;;;;;;;;;4931237;29;20046;-75
2022/06/18 02:44:49;;;;;;;3.38;2.22;;;;;;;;;;4932650;29;20401;-75
2022/06/18 02:47:16;;;;;;;2.30;2.10;;;;;;;;;;4931710;29;20036;-76
2022/06/18 02:49:42;;;;;;;;;;;;;;;;;;4931366;29;20035;-76
2022/06/18 02:52:08;;;;;;;1.70;1.50;;;;;;;;;;4931138;29;20376;-75
2022/06/18 02:54:34;;;;;;;2.00;1.60;;;;;;;;;;4930726;29;20020;-76
2022/06/18 02:57:03;;;;;;;1.77;1.60;;;;;;;;;;4936721;29;20031;-76
2022/06/18 02:59:30;;;;;;;2.45;1.63;;;;;;;;;;4941126;29;20035;-76
2022/06/18 03:01:56;;;;;;;1.60;1.50;;;;;;;;;;4931857;28;20501;-76
2022/06/18 03:04:22;;;;;;;2.53;2.05;;;;;;;;;;4929651;29;20031;-76
2022/06/18 03:06:48;;;;;;;2.45;1.80;;;;;;;;;;4940792;28;20397;-76
2022/06/18 03:09:14;;;;;;;2.85;1.73;;;;;;;;;;4939575;29;20039;-76
2022/06/18 03:14:25;;;;;;;4.10;1.65;;;;;;;;;;4932231;29;20424;-75
2022/06/18 03:16:51;;;;;;;3.53;1.58;;;;;;;;;;4929990;29;20023;-76
2022/06/18 03:19:23;;;;;;;2.45;1.80;;;;;;;;;;4934293;29;20093;-75
2022/06/18 03:21:50;;;;;;;1.80;1.70;;;;;;;;;;4941344;28;20028;-75
2022/06/18 03:24:16;;;;;;;2.35;1.52;;;;;;;;;;4931327;29;20043;-76
2022/06/18 03:26:43;;;;;;;2.70;1.85;;;;;;;;;;4942763;29;20031;-75
2022/06/18 03:29:09;;;;;;;2.05;1.45;;;;;;;;;;4936435;28;20043;-75
2022/06/18 03:31:35;;;;;;;1.73;1.35;;;;;;;;;;4931040;28;20771;-75
2022/06/18 03:34:01;;;;;;;6.30;1.73;;;;;;;;;;4930207;29;20070;-75
2022/06/18 03:36:27;;;;;;;1.42;1.33;;;18.80;79.90;;;;;;4931079;29;20059;-76
2022/06/18 03:38:53;;;;;;;1.98;1.73;;;;;;;;;;4931630;29;20064;-75
2022/06/18 03:41:20;;;;;;;2.70;1.63;;;;;;;;;;4931830;29;20028;-75
2022/06/18 03:43:46;;;;;;;2.33;1.80;;;;;;;;;;4932844;29;20027;-76
2022/06/18 03:46:16;;;;;;;3.55;1.90;;;;;;;;;;4934992;28;20083;-76
2022/06/18 03:49:15;;;;;;;2.40;2.20;;;;;;;;;;4940640;29;20040;-76
2022/06/18 03:51:41;;;;;;;3.78;1.83;;;;;;;;;;4965492;28;20107;-75
2022/06/18 03:54:07;;;;;;;3.97;1.95;;;;;;;;;;4967019;28;20106;-75
2022/06/18 03:56:32;;;;;;;3.40;1.95;;;18.80;76.00;;;;;;4965303;28;20110;-75
2022/06/18 03:58:59;;;;;;;3.72;1.80;;;;;;;;;;4957723;28;20034;-76
2022/06/18 04:01:29;;;;;;;1.77;1.67;;;18.60;66.70;;;;;;4961465;28;20039;-75
2022/06/18 04:03:55;;;;;;;5.20;2.10;;;;;;;;;;4966334;28;20077;-76
2022/06/18 04:06:21;;;;;;;2.47;2.28;;;;;;;;;;4974087;28;20026;-75
2022/06/18 04:08:47;;;;;;;2.30;1.95;;;;;;;;;;4971734;28;20141;-75
2022/06/18 04:11:13;;;;;;;2.58;1.88;;;;;;;;;;4964419;28;20125;-75
2022/06/18 04:13:40;;;;;;;1.23;1.13;;;;;;;;;;4963535;28;20058;-75
2022/06/18 04:16:06;;;;;;;1.77;1.67;;;;;;;;;;4966628;28;20488;-76
2022/06/18 04:18:33;;;;;;;2.00;1.60;;;;;;;;;;4970536;28;20395;-76
2022/06/18 04:20:59;;;;;;;6.72;1.80;;;;;;;;;;4969143;28;20035;-75
2022/06/18 04:23:26;;;;;;;2.63;1.53;;;;;;;;;;4966615;28;20547;-76
2022/06/18 04:25:52;;;;;;;1.48;1.38;;;;;;;;;;4972575;28;20281;-75
2022/06/18 04:28:19;;;;;;;4.28;1.55;;;18.60;68.00;;;;;;4938046;28;20043;-76
2022/06/18 04:30:46;;;;;;;3.13;1.65;;;;;;;;;;4932095;29;20038;-75
2022/06/18 04:33:12;;;;;;;5.32;1.80;;;;;;;;;;4933635;29;20505;-75
2022/06/18 04:35:38;;;;;;;1.85;1.38;;;;;;;;;;4934782;29;20054;-76
2022/06/18 04:38:05;;;;;;;1.92;1.80;;;18.80;68.10;;;;;;4937464;29;20075;-75
2022/06/18 04:40:32;;;;;;;2.60;1.55;;;;;;;;;;4939470;28;20027;-76
2022/06/18 04:43:01;;;;;;;2.35;1.60;;;;;;;;;;4941332;28;20027;-76
2022/06/18 04:45:28;;;;;;;2.65;2.10;;;;;;;;;;4943754;29;20028;-76
2022/06/18 04:47:54;;;;;;;2.35;1.58;;;;;;;;;;4937941;29;20032;-75
2022/06/18 04:50:26;;;;;;;2.50;1.55;;;18.90;68.20;;;;;;4938903;29;20028;-75
2022/06/18 04:52:52;;;;;;;2.85;1.90;;;;;;;;;;4937235;29;20035;-76
2022/06/18 04:55:18;;;;;;;2.28;2.08;;;;;;;;;;4940220;28;20091;-76
2022/06/18 04:57:44;;;;;;;1.73;1.63;;;;;;;;;;4936536;29;20393;-76
2022/06/18 05:00:11;;;;;;;2.30;1.60;;;;;;;;;;4943411;29;20043;-75
2022/06/18 05:02:39;;;;;;;2.50;1.85;;;;;;;;;;4932308;29;20031;-75
2022/06/18 05:05:07;;;;;;;2.58;2.10;;;;;;;;;;4938422;29;20031;-75
2022/06/18 05:07:33;;;;;;;2.33;2.10;;;;;;;;;;4934518;28;20115;-75
2022/06/18 05:09:59;;;;;;;1.92;1.60;;;;;;;;;;4933712;29;20054;-75
2022/06/18 05:12:25;;;;;;;3.05;1.83;;;19.40;88.60;;;;;;4935047;29;20464;-75
2022/06/18 05:14:51;;;;;;;4.28;1.90;;;;;;;;;;4933309;29;20114;-76
2022/06/18 05:17:20;;;;;;;2.67;2.00;;;;;;;;;;4934585;29;20067;-76
2022/06/18 05:19:47;;;;;;;6.90;2.10;;;;;;;;;;4933032;28;20019;-76
2022/06/18 05:22:13;;;;;;;4.68;2.30;;;;;;;;;;4932667;29;20040;-75
2022/06/18 05:24:39;;;;;;;2.20;1.77;;;;;;;;;;4932992;29;20034;-75
2022/06/18 05:27:05;;;;;;;2.63;2.20;;;;;;;;;;4930930;29;20032;-76
2022/06/18 05:29:32;;;;;;;2.13;1.95;;;;;;;;;;4941764;29;20031;-75
2022/06/18 05:31:58;;;;;;;7.10;2.15;;;20.40;77.40;;;;;;4933981;28;20031;-75
2022/06/18 05:34:24;;;;;;;2.80;1.88;;;;;;;;;;4932308;29;20106;-76
2022/06/18 05:36:50;;;;;;;2.47;2.22;;;;;;;;;;4932259;29;20135;-76
2022/06/18 05:39:18;;;;;;;2.85;1.58;;;20.40;64.60;;;;;;4932819;29;20027;-75
2022/06/18 05:41:44;;;;;;;3.35;1.90;;;;;;;;;;4939598;29;20035;-76
2022/06/18 05:44:10;;;;;;;2.97;1.98;;;;;;;;;;4931331;29;20019;-76
2022/06/18 05:46:36;;;;;;;2.95;1.50;;;;;;;;;;4933865;29;20043;-76
2022/06/18 05:49:02;;;;;;;2.50;1.75;;;;;;;;;;4933607;28;20083;-76
2022/06/18 05:51:28;;;;;;;4.18;1.95;;;;;;;;;;4943186;29;20028;-75
2022/06/18 05:53:54;;;;;;;2.20;1.70;;;;;;;;;;4934237;29;20039;-75
2022/06/18 05:56:20;;;;;;;1.60;1.50;;;;;;;;;;4940904;29;20031;-76
2022/06/18 05:58:46;;;;;;;2.50;1.90;;;;;;;;;;4935231;28;20078;-76
2022/06/18 06:01:12;;;;;;;2.17;1.98;;;;;;;;;;4932003;29;20055;-76
2022/06/18 06:03:38;;;;;;;2.63;1.95;;;;;;;;;;4931841;29;20060;-76
2022/06/18 06:06:04;;;;;;;2.53;2.00;;;;;;;;;;4930963;29;20583;-76
2022/06/18 06:08:31;;;;;;;2.13;1.83;;;;;;;;;;4933978;29;20047;-76
2022/06/18 06:13:41;;;;;;;2.55;1.55;;;;;;;;;;4932981;29;20492;-75
2022/06/18 06:16:07;;;;;;;1.85;1.20;;;;;;;;;;4939818;28;20151;-76
2022/06/18 06:18:33;;;;;;;2.28;1.80;;;;;;;;;;4939491;29;20532;-76
2022/06/18 06:21:00;;;;;;;3.33;1.33;;;22.80;60.10;;;;;;4942375;29;20054;-76
2022/06/18 06:23:26;;;;;;;3.95;1.75;;;;;;;;;;4939952;28;20118;-76
2022/06/18 06:25:52;;;;;;;2.35;1.45;;;;;;;;;;4935229;29;20400;-76
2022/06/18 06:28:20;;;;;;;1.30;1.20;;;;;;;;;;4938061;28;20044;-76
2022/06/18 06:30:47;;;;;;;1.98;1.20;;;24.40;58.30;;;;;;4931523;29;20030;-76
2022/06/18 06:33:13;;;;;;;2.00;1.40;;;;;;;;;;4931042;29;20039;-76
2022/06/18 06:35:39;;;;;;;4.75;2.13;;;25.40;70.60;;;;;;4932062;29;20042;-77
2022/06/18 06:38:05;;;;;;;3.70;1.63;;;;;;;;;;4931029;29;20119;-76
2022/06/18 06:40:32;;;;;;;3.15;2.10;;;;;;;;;;4931635;29;20046;-76
2022/06/18 06:42:57;;;;;;;;;;;29.30;48.10;;;;;;4931407;28;20103;-77
2022/06/18 06:45:27;;;;;;;1.33;0.82;;;30.30;46.40;;;;;;4931384;29;20001;-77
2022/06/18 06:47:54;;;;;;;1.90;1.10;;;;;;;;;;4941828;29;20129;-77
2022/06/18 06:50:21;;;;;;;1.48;1.00;;;32.80;39.90;;;;;;4933472;29;20042;-76
2022/06/18 06:52:49;;;;;;;2.20;0.77;;;;;;;;;;4933665;29;20031;-77
2022/06/18 06:58:09;;;;;;;;;;;36.20;33.70;;;;;;4931927;29;20043;-78
2022/06/18 07:00:40;;;;;;;1.50;0.85;;;36.70;33.10;;;;;;4937317;28;19915;-77
2022/06/18 07:03:06;;;;;;;4.47;1.08;;;;;;;;;;4931137;29;20052;-77
2022/06/18 07:05:31;;;;;;;3.20;1.00;;;37.40;35.90;;;;;;4931385;29;20497;-77
2022/06/18 07:07:57;;;;;;;1.90;0.98;;;;;;;;;;4931007;29;20058;-77
2022/06/18 07:10:23;;;;;;;1.98;1.40;;;;;;;;;;4929958;29;20020;-77
2022/06/18 07:12:49;;;;;;;3.15;1.15;;;;;;;;;;4938265;29;20518;-77
2022/06/18 07:15:15;;;;;;;5.40;1.40;;;;;;;;;;4930808;29;20051;-77
2022/06/18 07:17:42;;;;;;;3.17;1.15;;;;;;;;;;4935885;29;20424;-77
2022/06/18 07:20:15;;;;;;;9.60;1.77;;;41.10;29.00;;;;;;4930536;29;20034;-77
2022/06/18 07:22:41;;;;;;;9.73;1.70;;;40.30;45.90;;;;;;4935465;29;20038;-77
2022/06/18 07:25:08;;;;;;;4.00;1.30;;;40.50;27.80;;;;;;4938467;28;20031;-78
2022/06/18 07:27:34;;;;;;;2.75;1.45;;;40.80;28.30;;;;;;4930536;29;20154;-78
2022/06/18 07:30:00;;;;;;;3.30;1.08;;;;;;;;;;4930112;29;20235;-77
2022/06/18 07:32:26;;;;;;;1.10;1.00;;;;;;;;;;4931594;29;20019;-77
2022/06/18 07:34:53;;;;;;;2.88;0.88;;;41.80;27.60;;;;;;4920282;29;20374;-77
2022/06/18 07:37:23;;;;;;;3.25;1.20;;;41.70;26.70;;;;;;4930316;29;20118;-77
2022/06/18 07:39:49;;;;;;;6.80;1.55;;;41.80;27.70;;;;;;4930509;29;20027;-78
2022/06/18 07:42:17;;;;;;;1.52;1.20;;;42.40;26.50;;;;;;4927248;29;20028;-77
2022/06/18 07:44:44;;;;;;;1.17;1.00;;;;;;;;;;4939051;29;20516;-78
2022/06/18 07:47:13;;;;;;;1.75;1.00;;;42.90;26.30;;;;;;4930199;28;20572;-78
2022/06/18 07:49:39;;;;;;;3.92;1.15;;;;;;;;;;4930650;29;20039;-77
2022/06/18 07:52:05;;;;;;;1.10;0.52;;;42.40;42.30;;;;;;4932180;29;20409;-77
2022/06/18 07:54:31;;;;;;;1.52;0.80;;;;;;;;;;4939185;29;20182;-77
2022/06/18 07:56:57;;;;;;;1.95;1.48;;;;;;;;;;4939602;29;20030;-78
2022/06/18 07:59:23;;;;;;;1.20;0.70;;;;;;;;;;4942720;29;20497;-78
2022/06/18 08:01:49;;;;;;;1.27;1.00;;;42.50;25.90;;;;;;4936549;28;20039;-78
2022/06/18 08:04:15;;;;;;;0.68;0.65;;;;;;;;;;4934290;29;20107;-78
2022/06/18 08:06:41;;;;;;;1.58;0.60;;;;;;;;;;4933931;29;20028;-78
2022/06/18 08:09:08;;;;;;;0.75;0.70;;;44.40;40.20;;;;;;4942298;29;20156;-77
2022/06/18 08:11:35;;;;;;;2.05;0.70;;;44.80;24.60;;;;;;4944139;29;20031;-77
2022/06/18 08:14:00;;;;;;;2.78;1.27;;;44.90;39.60;;;;;;4933350;28;20038;-78
2022/06/18 08:16:27;;;;;;;4.45;1.00;;;;;;;;;;4933729;29;20050;-78
2022/06/18 08:18:53;;;;;;;4.32;0.90;;;;;;;;;;4933916;29;20023;-78
2022/06/18 08:21:41;;;;;;;1.92;1.00;;;45.90;39.30;;;;;;4923575;29;20039;-78
2022/06/18 08:24:21;;;;;;;1.10;0.80;;;44.70;29.70;;;;;;4934444;29;20124;-78
2022/06/18 08:26:49;;;;;;;3.42;0.65;;;44.80;23.70;;;;;;4942118;29;20085;-78
2022/06/18 08:29:19;;;;;;;5.50;1.27;;;45.10;24.10;;;;;;4938955;29;20504;-80
2022/06/18 08:31:45;;;;;;;3.13;0.90;;;45.40;40.40;;;;;;4933752;29;20409;-78
2022/06/18 08:34:12;;;;;;;2.03;0.75;;;46.40;40.20;;;;;;4933683;29;20041;-78
2022/06/18 08:36:39;;;;;;;1.38;0.88;;;45.30;24.30;;;;;;4944690;29;20246;-78
2022/06/18 08:39:06;;;;;;;3.10;1.30;;;45.70;40.70;;;;;;4933330;29;20028;-77
2022/06/18 08:41:53;;;;;;;7.38;1.10;;;46.50;24.10;;;;;;4934730;29;20028;-77
2022/06/18 08:44:27;;;;;;;6.47;1.77;;;47.10;40.80;;;;;;4933625;29;20035;-78
2022/06/18 08:47:26;;;;;;;1.60;1.02;;;46.40;23.90;;;;;;4933108;29;20038;-78
2022/06/18 08:49:52;;;;;;;1.52;1.08;;;;;;;;;;4933313;29;20552;-77
2022/06/18 08:52:18;;;;;;;1.17;0.85;;;;;;;;;;4932786;29;20124;-77
2022/06/18 08:54:52;;;;;;;2.45;1.08;;;46.30;27.80;;;;;;4937410;29;20039;-77
2022/06/18 08:57:39;;;;;;;1.13;0.80;;;46.70;24.00;;;;;;4943571;29;20027;-78
2022/06/18 09:00:12;;;;;;;3.08;1.17;;;47.10;40.70;;;;;;4933119;29;20042;-77
2022/06/18 09:02:56;;;;;;;1.00;0.88;;;47.10;24.10;;;;;;4943251;28;20027;-78
2022/06/18 09:05:27;;;;;;;;;;;47.10;24.60;;;;;;4934256;29;20032;-78
2022/06/18 09:08:30;;;;;;;1.23;0.70;;;47.80;24.70;;;;;;4930011;28;19925;-77
2022/06/18 09:11:03;;;;;;;;;;;47.60;24.10;;;;;;4946424;28;20539;-78
2022/06/18 09:13:57;;;;;;;1.25;0.55;;;46.60;24.50;;;;;;4945021;28;20282;-77
2022/06/18 09:16:29;;;;;;;7.55;1.08;;;46.70;39.90;;;;;;4943267;28;20117;-78
2022/06/18 09:18:56;;;;;;;0.80;0.60;;;46.70;40.30;;;;;;4944157;28;20130;-77
2022/06/18 09:21:36;;;;;;;13.70;1.90;;;47.80;23.80;;;;;;4948599;28;20039;-77
2022/06/18 09:24:04;;;;;;;2.83;1.35;;;;;;;;;;4947731;28;20027;-78
2022/06/18 09:26:43;;;;;;;2.00;0.65;;;48.00;23.10;;;;;;4956419;28;20642;-77
2022/06/18 09:29:09;;;;;;;1.50;0.82;;;;;;;;;;4950784;28;20046;-77
2022/06/18 09:31:58;;;;;;;0.73;0.60;;;;;;;;;;4944618;28;20042;-78
2022/06/18 09:34:30;;;;;;;3.38;1.08;;;;;;;;;;4906673;29;20044;-77
2022/06/18 09:37:01;;;;;;;1.52;0.93;;;44.90;31.50;;;;;;4906716;29;20041;-77
2022/06/18 09:39:38;;;;;;;3.38;0.77;;;43.70;24.10;;;;;;4910926;29;20529;-78
2022/06/18 09:42:11;;;;;;;1.98;0.98;;;;;;;;;;4920116;29;20488;-77
2022/06/18 09:44:49;;;;;;;2.38;1.08;;;43.10;25.30;;;;;;4907219;29;20038;-77
2022/06/18 09:47:39;;;;;;;2.35;1.15;;;43.80;25.20;;;;;;4903644;29;20044;-77
2022/06/18 09:50:22;;;;;;;2.28;1.05;;;;;;;;;;4886129;29;20032;-77
2022/06/18 09:53:00;;;;;;;2.83;1.08;;;44.10;24.90;;;;;;4888492;29;20545;-77
2022/06/18 09:55:40;;;;;;;5.05;0.88;;;43.80;25.00;;;;;;4889732;29;20095;-78
2022/06/18 09:58:11;;;;;;;2.00;0.93;;;43.10;25.20;;;;;;4873677;29;20037;-78
2022/06/18 10:00:37;;;;;;;8.60;1.17;;;;;;;;;;4891121;29;20036;-77
2022/06/18 10:03:11;;;;;;;2.72;0.73;;;40.80;25.60;;;;;;4890861;29;20024;-77
2022/06/18 10:08:49;;;;;;;2.88;0.90;;;;;;;;;;4888433;29;20576;-78
2022/06/18 10:11:15;;;;;;;4.60;1.10;;;;;;;;;;4902149;29;20039;-77
2022/06/18 10:14:18;;;;;;;4.75;1.33;;;41.40;26.10;;;;;;4933799;29;20492;-77
2022/06/18 10:17:21;;;;;;;2.97;1.02;;;42.40;26.10;;;;;;4935724;28;20090;-77
2022/06/18 10:20:10;;;;;;;1.25;0.93;;;42.90;25.60;;;;;;4931535;29;20122;-77
2022/06/18 10:23:22;;;;;;;6.60;1.45;;;42.70;25.40;;;;;;4931277;29;20035;-77
2022/06/18 10:26:10;;;;;;;3.67;1.17;;;;;;;;;;4929796;29;20023;-77
2022/06/18 10:28:54;;;;;;;4.25;0.80;;;42.40;25.30;;;;;;4932517;29;20122;-76
2022/06/18 10:31:20;;;;;;;2.08;1.17;;;;;;;;;;4938794;28;20035;-76
2022/06/18 10:34:09;;;;;;;2.08;1.15;;;43.30;25.80;;;;;;4931133;29;20027;-77
2022/06/18 10:37:17;;;;;;;2.45;1.17;;;42.90;25.80;;;;;;4928868;29;20035;-77
2022/06/18 10:40:22;;;;;;;2.53;1.80;;;42.20;26.00;;;;;;4930680;29;20027;-78
2022/06/18 10:43:09;;;;;;;1.92;1.73;;;41.80;26.60;;;;;;4930603;29;20047;-77
2022/06/18 10:45:42;;;;;;;2.40;1.25;;;;;;;;;;4931403;29;20114;-77
2022/06/18 10:48:14;;;;;;;1.95;1.27;;;41.70;26.80;;;;;;4930463;29;20044;-78
2022/06/18 10:50:49;;;;;;;5.03;1.30;;;41.70;26.90;;;;;;4942125;29;20174;-77
2022/06/18 10:53:16;;;;;;;1.43;0.97;;;;;;;;;;4933378;29;20039;-77
2022/06/18 10:55:43;;;;;;;2.83;1.10;;;41.40;27.00;;;;;;4932323;29;20099;-77
2022/06/18 10:58:15;;;;;;;2.97;1.08;;;41.50;27.00;;;;;;4939337;28;20066;-77
2022/06/18 11:00:42;;;;;;;4.95;1.05;;;;;;;;;;4937838;29;20401;-77
2022/06/18 11:03:20;;;;;;;3.03;1.23;;;41.30;27.40;;;;;;4937136;29;20367;-77
2022/06/18 11:05:47;;;;;;;5.22;1.50;;;40.40;27.40;;;;;;4938872;29;20023;-76
2022/06/18 11:08:21;;;;;;;2.75;1.80;;;40.70;27.80;;;;;;4930802;29;20054;-77
2022/06/18 11:11:04;;;;;;;3.53;1.27;;;39.40;27.80;;;;;;4930987;29;20038;-76
2022/06/18 11:13:39;;;;;;;5.20;1.60;;;39.40;28.50;;;;;;4931180;29;20031;-77
2022/06/18 11:16:05;;;;;;;3.43;1.07;;;39.20;46.10;;;;;;4938991;28;20066;-77
2022/06/18 11:18:30;;;;;;;2.90;1.75;;;39.20;45.40;;;;;;4931892;29;20027;-76
2022/06/18 11:21:04;;;;;;;4.80;1.35;;;38.80;30.00;;;;;;4947894;28;20035;-76
2022/06/18 11:23:37;;;;;;;3.70;1.95;;;38.40;28.80;;;;;;4929953;29;20086;-77
2022/06/18 11:26:10;;;;;;;4.70;1.23;;;;;;;;;;4929788;29;20047;-76
2022/06/18 11:28:43;;;;;;;6.95;2.17;;;;;;;;;;4930485;29;20039;-76
2022/06/18 11:31:13;;;;;;;1.75;1.27;;;;;;;;;;4930826;29;20035;-77
2022/06/18 11:33:51;;;;;;;4.47;1.58;;;;;;;;;;4941081;29;20040;-77
2022/06/18 11:36:19;;;;;;;7.20;2.38;;;36.80;30.50;;;;;;4938644;29;20123;-76
2022/06/18 11:38:54;;;;;;;2.92;1.50;;;;;;;;;;4927395;29;20035;-77
2022/06/18 11:41:32;;;;;;;3.25;1.25;;;;;;;;;;4932435;29;20036;-78
2022/06/18 11:44:21;;;;;;;3.28;2.10;;;35.60;32.10;;;;;;4931489;29;20118;-77
2022/06/18 11:46:50;;;;;;;2.30;1.30;;;;;;;;;;4932625;29;20584;-77
2022/06/18 11:49:16;;;;;;;7.32;1.90;;;;;;;;;;4937741;28;20054;-76
2022/06/18 11:52:02;;;;;;;5.07;2.03;;;34.90;33.20;;;;;;4931633;29;20031;-76
2022/06/18 11:54:28;;;;;;;3.17;1.67;;;;;;;;;;4943962;28;20051;-76
2022/06/18 11:57:18;;;;;;;8.38;1.80;;;34.80;33.60;;;;;;4930927;29;20110;-77
2022/06/18 12:00:24;;;;;;;7.93;2.00;;;35.10;33.40;;;;;;4937497;29;20035;-77
2022/06/18 12:02:58;;;;;;;7.55;3.60;;;35.00;33.40;;;;;;4908873;29;20036;-77
2022/06/18 12:05:47;;;;;;;5.65;1.92;;;35.00;33.40;;;;;;4929331;29;20918;-76
2022/06/18 12:08:16;;;;;;;3.47;1.92;;;;;;;;;;4929078;29;20047;-76
2022/06/18 12:10:57;;;;;;;3.85;2.20;;;;;;;;;;4930981;29;20165;-76
2022/06/18 12:13:46;;;;;;;16.67;2.42;;;34.80;33.70;;;;;;4934345;29;20495;-76
2022/06/18 12:16:27;;;;;;;4.05;3.20;;;;;;;;;;4929950;29;20067;-76
2022/06/18 12:18:58;;;;;;;10.40;2.53;;;;;;;;;;4927591;29;20027;-77
2022/06/18 12:21:28;;;;;;;5.38;2.15;;;;;;;;;;4936652;28;20055;-77
2022/06/18 12:23:54;;;;;;;3.05;2.03;;;;;;;;;;4941204;29;20503;-77
2022/06/18 12:26:22;;;;;;;4.85;1.80;;;;;;;;;;4932540;29;20040;-77
2022/06/18 12:29:18;;;;;;;7.15;2.35;;;34.80;34.30;;;;;;4931174;29;20051;-76
2022/06/18 12:31:51;;;;;;;2.30;2.10;;;;;;;;;;4932716;29;20055;-76
2022/06/18 12:34:30;;;;;;;3.35;2.30;;;;;;;;;;4929637;29;20077;-76
2022/06/18 12:37:20;;;;;;;6.18;1.92;;;34.90;35.70;;;;;;4929764;29;20030;-76
2022/06/18 12:40:07;;;;;;;3.33;2.53;;;34.80;35.40;;;;;;4933206;29;20596;-76
2022/06/18 12:42:37;;;;;;;5.97;3.15;;;;;;;;;;4932978;29;20039;-76
2022/06/18 12:45:08;;;;;;;6.38;2.28;;;;;;;;;;4935512;29;20028;-76
2022/06/18 12:47:55;;;;;;;3.03;2.40;;;;;;;;;;4933182;29;20105;-76
2022/06/18 12:50:57;;;;;;;6.10;2.45;;;34.80;35.40;;;;;;4941694;29;20042;-77
2022/06/18 12:53:29;;;;;;;4.47;2.20;;;34.70;35.50;;;;;;4934155;29;20032;-75
2022/06/18 12:55:59;;;;;;;5.15;2.08;;;34.70;36.40;;;;;;4933371;29;20064;-76
2022/06/18 12:58:38;;;;;;;4.45;3.05;;;34.90;55.10;;;;;;4932563;29;20038;-76
2022/06/18 13:01:28;;;;;;;7.60;3.53;;;;;;;;;;4924478;29;20106;-77
2022/06/18 13:04:18;;;;;;;4.78;3.10;;;34.80;36.40;;;;;;4934916;29;20741;-76
2022/06/18 13:06:56;;;;;;;8.98;3.33;;;;;;;;;;4943619;29;20437;-76
2022/06/18 13:09:31;;;;;;;5.70;2.88;;;34.70;35.60;;;;;;4939847;29;20052;-76
2022/06/18 13:12:12;;;;;;;4.90;2.50;;;34.80;36.30;;;;;;4942293;29;20039;-76
2022/06/18 13:15:02;;;;;;;6.50;3.47;;;34.90;35.80;;;;;;4933159;29;20040;-76
2022/06/18 13:17:34;;;;;;;7.55;3.20;;;;;;;;;;4934122;29;20032;-76
2022/06/18 13:20:09;;;;;;;7.35;3.25;;;35.00;35.30;;;;;;4933087;29;20059;-76
2022/06/18 13:22:36;;;;;;;5.72;3.22;;;;;;;;;;4935932;29;20162;-76
2022/06/18 13:28:12;;;;;;;7.05;3.58;;;35.30;35.80;;;;;;4944237;29;20042;-76
2022/06/18 13:30:48;;;;;;;6.30;2.70;;;;;;;;;;4930862;29;20122;-76
2022/06/18 13:33:40;;;;;;;4.90;2.72;;;35.40;35.50;;;;;;4939146;29;20408;-76
2022/06/18 13:36:25;;;;;;;6.05;2.47;;;;;;;;;;4931096;29;20040;-75
2022/06/18 13:39:01;;;;;;;12.65;3.53;;;35.10;35.60;;;;;;4929533;29;20024;-77
2022/06/18 13:41:49;;;;;;;10.27;2.20;;;35.30;35.50;;;;;;4933117;29;20059;-76
2022/06/18 13:44:35;;;;;;;4.18;2.38;;;;;;;;;;4932370;29;20311;-76
2022/06/18 13:47:12;;;;;;;5.45;2.45;;;;;;;;;;4932471;29;20031;-76
2022/06/18 13:49:54;;;;;;;3.55;2.08;;;35.50;35.20;;;;;;4932647;29;20046;-77
2022/06/18 13:52:20;;;;;;;5.60;2.55;;;35.40;53.20;;;;;;4925043;29;20078;-76
2022/06/18 13:54:49;;;;;;;8.33;2.90;;;;;;;;;;4931934;29;20123;-77
2022/06/18 13:57:16;;;;;;;14.98;3.25;;;;;;;;;;4931561;29;20027;-76
2022/06/18 13:59:54;;;;;;;11.20;2.45;;;;;;;;;;4936367;29;20038;-76
2022/06/18 14:02:26;;;;;;;10.25;3.05;;;;;;;;;;4932583;29;20027;-76
2022/06/18 14:05:00;;;;;;;8.10;2.25;;;;;;;;;;4934685;29;20548;-77
2022/06/18 14:07:27;;;;;;;6.00;2.65;;;;;;;;;;4934594;28;20032;-76
2022/06/18 14:09:54;;;;;;;6.68;2.90;;;;;;;;;;4939883;29;20608;-76
2022/06/18 14:12:30;;;;;;;11.52;2.50;;;;;;;;;;4932305;29;20034;-76
2022/06/18 14:15:17;;;;;;;9.02;3.75;;;35.90;33.20;;;;;;4930627;29;20584;-76
2022/06/18 14:17:45;;;;;;;7.00;2.75;;;;;;;;;;4940030;29;20039;-76
2022/06/18 14:20:28;;;;;;;8.93;2.70;;;35.60;32.90;;;;;;4931498;29;20023;-76
2022/06/18 14:22:57;;;;;;;12.52;2.67;;;35.70;33.00;;;;;;4931714;29;20067;-76
2022/06/18 14:25:22;;;;;;;13.02;3.92;;;35.60;43.30;;;;;;4929856;29;20035;-76
2022/06/18 14:27:48;;;;;;;6.33;3.00;;;;;;;;;;4931775;29;20544;-76
2022/06/18 14:30:37;;;;;;;8.55;2.85;;;;;;;;;;4937060;29;20070;-76
2022/06/18 14:33:10;;;;;;;11.15;2.85;;;;;;;;;;4941574;29;20043;-76
2022/06/18 14:35:41;;;;;;;12.80;2.88;;;;;;;;;;4931258;29;20122;-76
2022/06/18 14:38:08;;;;;;;7.32;3.33;;;;;;;;;;4931676;29;20028;-76